Time;durP1;ratioP1;P1;durP2;ratioP2;P2;SDS_P1;SDS_P2;PMS_P1;PMS_P2;Temp;Humidity;BMP_temperature;BMP_pressure;BME280_temperature;BME280_humidity;BME280_pressure;Samples;Min_cycle;Max_cycle;Signal;HPM_P1;HPM_P2
2021/08/18 00:00:26;;;;;;;;;;;;;;;22.33;58.71;99971.69;1682499;83;21019;-60
2021/08/18 00:02:52;;;;;;;1.37;1.27;;;;;;;22.28;58.82;99971.72;1704793;83;20189;-62
2021/08/18 00:05:19;;;;;;;2.08;1.90;;;;;;;22.18;59.35;99977.13;1706287;83;21069;-61
2021/08/18 00:07:47;;;;;;;1.82;1.72;;;;;;;22.12;59.73;99978.23;1705245;83;21031;-62
2021/08/18 00:10:14;;;;;;;1.85;1.52;;;;;;;22.07;59.75;99979.59;1706959;82;21035;-63
2021/08/18 00:12:41;;;;;;;1.47;1.30;;;;;;;22.05;59.98;99976.33;1725552;81;21103;-62
2021/08/18 00:15:15;;;;;;;4.03;1.98;;;;;;;22.09;60.10;99977.41;1735479;81;21059;-61
2021/08/18 00:17:45;;;;;;;1.52;1.42;;;;;;;22.08;60.15;99979.88;1730211;81;21122;-62
2021/08/18 00:20:12;;;;;;;2.70;1.85;;;;;;;22.04;60.30;99985.55;1725678;81;20990;-62
2021/08/18 00:22:39;;;;;;;3.08;1.85;;;;;;;22.03;60.70;99986.10;1735084;81;21046;-61
2021/08/18 00:25:07;;;;;;;3.45;1.65;;;;;;;21.99;60.87;99986.94;1735266;81;20991;-62
2021/08/18 00:27:35;;;;;;;1.87;1.77;;;;;;;21.91;61.39;99987.75;1734806;81;21045;-63
2021/08/18 00:30:02;;;;;;;2.30;2.12;;;;;;;21.92;61.32;99987.20;1732935;81;21058;-63
2021/08/18 00:32:28;;;;;;;1.80;1.70;;;;;;;21.95;61.60;99990.18;1713559;81;21478;-64
2021/08/18 00:34:54;;;;;;;2.17;2.08;;;;;;;21.91;61.75;99999.15;1734712;81;21019;-64
2021/08/18 00:37:21;;;;;;;6.08;2.17;;;;;;;21.83;61.98;100002.39;1734453;81;21138;-62
2021/08/18 00:39:47;;;;;;;1.52;1.52;;;;;;;21.78;62.36;100000.50;1735124;83;21026;-59
2021/08/18 00:42:16;;;;;;;2.22;2.10;;;;;;;21.80;62.35;100002.95;1735067;81;21070;-66
2021/08/18 00:44:43;;;;;;;3.58;1.72;;;;;;;21.80;62.56;100001.59;1735557;81;21015;-65
2021/08/18 00:47:09;;;;;;;1.70;1.60;;;;;;;21.78;62.74;100000.50;1735012;82;21008;-64
2021/08/18 00:49:37;;;;;;;1.80;1.65;;;;;;;21.80;62.74;100004.30;1734997;81;21167;-64
2021/08/18 00:52:05;;;;;;;;;;;;;;;21.76;63.14;100004.84;1737676;81;21566;-62
2021/08/18 00:54:31;;;;;;;2.10;1.90;;;;;;;21.70;63.47;99995.59;1735008;81;20105;-62
2021/08/18 00:57:02;;;;;;;3.67;2.10;;;;;;;21.59;63.68;99996.16;1710494;83;20998;-63
2021/08/18 00:59:30;;;;;;;2.27;1.65;;;;;;;21.54;64.27;99996.94;1655374;86;21086;-62
2021/08/18 01:01:59;;;;;;;4.70;1.72;;;;;;;21.52;64.41;99999.66;1689083;83;21568;-63
2021/08/18 01:04:26;;;;;;;1.50;1.27;;;;;;;21.48;64.94;99996.67;1702875;83;21042;-63
2021/08/18 01:06:54;;;;;;;1.47;1.35;;;;;;;21.44;65.26;99993.39;1686342;83;21075;-62
2021/08/18 01:09:22;;;;;;;2.10;2.00;;;;;;;21.39;65.74;99994.99;1687847;83;21572;-57
2021/08/18 01:11:52;;;;;;;2.60;2.20;;;;;;;21.34;65.98;99990.94;1701334;83;20975;-58
2021/08/18 01:14:21;;;;;;;3.10;2.12;;;;;;;21.32;66.17;99990.91;1731641;83;20968;-58
2021/08/18 01:16:49;;;;;;;2.62;1.75;;;;;;;21.34;66.36;99996.36;1731961;83;21007;-58
2021/08/18 01:19:19;;;;;;;2.12;1.92;;;;;;;21.35;66.43;100000.68;1689032;83;21027;-58
2021/08/18 01:21:48;;;;;;;3.25;1.90;;;;;;;21.35;66.46;100008.02;1728793;81;21040;-59
2021/08/18 01:24:20;;;;;;;2.17;2.05;;;;;;;21.32;66.66;100012.08;1715157;81;21040;-59
2021/08/18 01:26:47;;;;;;;1.75;1.65;;;;;;;21.26;66.79;100009.06;1727951;81;21044;-59
2021/08/18 01:29:14;;;;;;;2.37;2.27;;;;;;;21.29;67.15;100008.54;1731654;81;21518;-59
2021/08/18 01:31:42;;;;;;;2.27;2.17;;;;;;;21.31;67.15;100012.34;1731180;83;21044;-59
2021/08/18 01:34:09;;;;;;;2.42;2.33;;;;;;;21.35;67.28;100013.43;1725413;81;21514;-59
2021/08/18 01:36:38;;;;;;;3.30;3.08;;;;;;;21.36;67.49;100015.88;1729081;81;21494;-59
2021/08/18 01:39:08;;;;;;;4.80;3.17;;;;;;;21.31;67.71;100023.19;1729871;81;21047;-59
2021/08/18 01:41:36;;;;;;;2.85;2.65;;;;;;;21.26;68.33;100018.55;1731965;83;20953;-60
2021/08/18 01:44:02;;;;;;;2.90;2.80;;;;;;;21.26;68.18;100019.09;1729543;81;21023;-60
2021/08/18 01:46:29;;;;;;;2.98;2.30;;;;;;;21.27;68.27;100019.39;1728662;83;21041;-61
2021/08/18 01:48:56;;;;;;;3.12;2.92;;;;;;;21.34;68.47;100015.86;1731037;81;21187;-64
2021/08/18 01:51:22;;;;;;;2.67;2.52;;;;;;;21.37;68.29;100019.39;1728123;81;21036;-65
2021/08/18 01:53:49;;;;;;;3.00;2.80;;;;;;;21.37;68.48;100024.27;1724993;81;21443;-64
2021/08/18 01:56:17;;;;;;;2.70;2.50;;;;;;;21.37;68.66;100018.04;1725374;81;21045;-64
2021/08/18 01:58:46;;;;;;;3.02;2.83;;;;;;;21.39;68.56;100016.68;1731489;81;21012;-64
2021/08/18 02:01:15;;;;;;;2.25;2.22;;;;;;;21.41;68.62;100017.77;1731441;80;21036;-63
2021/08/18 02:03:43;;;;;;;2.60;2.40;;;;;;;21.41;68.48;100008.83;1731525;83;21487;-63
2021/08/18 02:06:10;;;;;;;2.60;2.50;;;;;;;21.39;68.49;99999.61;1731752;83;21044;-61
2021/08/18 02:08:38;;;;;;;3.98;2.60;;;;;;;21.34;68.59;100002.30;1727548;81;21079;-63
2021/08/18 02:11:06;;;;;;;3.33;3.05;;;;;;;21.30;68.86;100004.73;1731220;81;20974;-61
2021/08/18 02:13:34;;;;;;;3.00;2.80;;;;;;;21.29;68.87;100005.83;1730666;83;21114;-60
2021/08/18 02:16:02;;;;;;;3.17;2.70;;;;;;;21.28;68.87;99994.70;1726420;81;21659;-62
2021/08/18 02:18:29;;;;;;;4.80;2.33;;;;;;;21.31;68.76;99999.59;1731263;83;20993;-58
2021/08/18 02:20:55;;;;;;;2.75;2.65;;;;;;;21.33;68.80;99997.98;1726596;81;21100;-56
2021/08/18 02:23:23;;;;;;;2.95;2.70;;;;;;;21.34;68.82;100003.66;1730736;83;21024;-59
2021/08/18 02:25:51;;;;;;;3.12;2.58;;;;;;;21.34;68.81;100002.30;1689727;83;20997;-58
2021/08/18 02:28:17;;;;;;;2.62;2.12;;;;;;;21.37;68.65;99999.06;1730998;81;21642;-58
2021/08/18 02:30:44;;;;;;;2.62;2.42;;;;;;;21.45;68.38;100000.46;1721056;81;21483;-57
2021/08/18 02:33:11;;;;;;;2.30;2.15;;;;;;;21.48;68.19;99998.03;1725340;81;21566;-58
2021/08/18 02:35:39;;;;;;;2.87;2.65;;;;;;;21.47;68.19;99999.10;1731800;81;21005;-60
2021/08/18 02:38:07;;;;;;;4.35;2.90;;;;;;;21.43;68.24;99997.98;1728981;81;21065;-59
2021/08/18 02:40:34;;;;;;;2.98;2.67;;;;;;;21.44;68.29;99994.23;1730909;81;22120;-59
2021/08/18 02:43:01;;;;;;;3.10;2.80;;;;;;;21.38;68.28;99982.53;1731551;82;21655;-59
2021/08/18 02:45:30;;;;;;;2.50;2.30;;;;;;;21.28;68.57;99979.79;1731623;81;21065;-58
2021/08/18 02:47:56;;;;;;;2.75;2.45;;;;;;;21.17;69.31;99986.27;1730145;81;21628;-59
2021/08/18 02:50:26;;;;;;;5.87;3.20;;;;;;;21.07;69.43;99977.58;1723776;81;20945;-58
2021/08/18 02:52:53;;;;;;;4.80;2.25;;;;;;;20.98;70.03;99985.95;1726701;83;21056;-58
2021/08/18 02:55:21;;;;;;;2.62;2.42;;;;;;;20.96;70.28;99990.30;1727839;81;21016;-58
2021/08/18 02:57:47;;;;;;;3.62;2.87;;;;;;;20.98;70.22;99992.72;1731772;81;21100;-59
2021/08/18 03:00:14;;;;;;;2.27;2.12;;;;;;;21.02;70.13;99997.06;1730846;82;21503;-59
2021/08/18 03:02:41;;;;;;;2.98;2.70;;;;;;;21.07;70.09;100001.16;1730916;83;21483;-58
2021/08/18 03:05:11;;;;;;;2.55;2.37;;;;;;;21.13;70.01;99999.53;1730493;81;21087;-58
2021/08/18 03:07:37;;;;;;;2.75;2.65;;;;;;;21.15;69.90;99998.76;1728545;83;21043;-60
2021/08/18 03:10:05;;;;;;;;;;;;;;;21.15;70.05;99997.41;1732911;81;21519;-59
2021/08/18 03:12:31;;;;;;;2.05;1.95;;;;;;;21.16;70.10;100003.08;1728147;81;20299;-58
2021/08/18 03:14:58;;;;;;;3.65;2.33;;;;;;;21.16;70.19;100007.69;1731222;83;21056;-58
2021/08/18 03:17:24;;;;;;;2.08;1.98;;;;;;;21.18;70.21;100000.11;1731413;81;21593;-58
2021/08/18 03:19:51;;;;;;;3.17;2.98;;;;;;;21.24;70.30;100007.16;1731548;81;21546;-58
2021/08/18 03:22:18;;;;;;;1.77;1.67;;;;;;;21.22;70.63;100011.23;1728875;81;21124;-59
2021/08/18 03:24:44;;;;;;;2.15;2.02;;;;;;;21.29;70.40;100011.80;1731122;81;21063;-59
2021/08/18 03:27:12;;;;;;;3.17;2.30;;;;;;;21.39;70.12;100012.61;1725016;83;21016;-58
2021/08/18 03:29:38;;;;;;;;;;;;;;;21.38;70.02;100012.91;1731448;83;21623;-57
2021/08/18 03:32:06;;;;;;;2.30;1.70;;;;;;;21.35;70.33;100008.81;1729273;83;20112;-59
2021/08/18 03:34:34;;;;;;;2.35;2.25;;;;;;;21.35;70.55;100008.02;1730024;81;21006;-58
2021/08/18 03:37:00;;;;;;;4.00;2.58;;;;;;;21.41;70.45;100016.41;1729933;81;21487;-60
2021/08/18 03:39:26;;;;;;;;;;;;;;;21.41;70.53;100017.77;1732443;83;21036;-59
2021/08/18 03:41:54;;;;;;;2.27;2.17;;;;;;;21.49;70.49;100022.72;1729595;83;20194;-59
2021/08/18 03:44:20;;;;;;;2.40;2.20;;;;;;;21.57;70.24;100020.02;1726762;83;21005;-59
2021/08/18 03:46:46;;;;;;;;;;;;;;;21.58;70.00;100019.72;1731782;83;21577;-60
2021/08/18 03:49:13;;;;;;;3.05;2.85;;;;;;;21.53;69.77;100022.45;1694705;83;20138;-59
2021/08/18 03:51:39;;;;;;;7.40;2.87;;;;;;;21.42;69.82;100018.58;1718033;81;21000;-59
2021/08/18 03:54:06;;;;;;;5.37;3.50;;;;;;;21.36;70.11;100025.89;1731470;83;21040;-59
2021/08/18 03:56:32;;;;;;;4.78;2.70;;;;;;;21.33;69.93;100029.16;1730633;81;21052;-58
2021/08/18 03:59:00;;;;;;;2.85;2.70;;;;;;;21.28;70.00;100038.06;1725534;81;21572;-59
2021/08/18 04:01:26;;;;;;;4.60;3.15;;;;;;;21.21;70.19;100038.88;1742298;82;20989;-59
2021/08/18 04:03:52;;;;;;;3.98;2.62;;;;;;;21.13;70.59;100046.95;1752630;80;21009;-59
2021/08/18 04:06:19;;;;;;;4.67;3.08;;;;;;;21.13;70.50;100045.61;1751925;82;21048;-59
2021/08/18 04:08:45;;;;;;;3.33;2.85;;;;;;;21.14;70.34;100051.31;1751361;82;21012;-60
2021/08/18 04:11:13;;;;;;;3.67;3.33;;;;;;;21.11;70.39;100050.48;1750796;80;20981;-59
2021/08/18 04:13:39;;;;;;;3.55;3.35;;;;;;;21.04;70.43;100055.35;1750872;80;21068;-58
2021/08/18 04:16:05;;;;;;;;;;;;;;;21.02;70.61;100053.97;1754882;81;21091;-58
2021/08/18 04:18:31;;;;;;;2.87;2.67;;;;;;;21.05;70.36;100058.87;1751922;80;20185;-58
2021/08/18 04:20:57;;;;;;;;;;;;;;;21.02;70.71;100068.35;1755261;80;21598;-60
2021/08/18 04:23:23;;;;;;;4.35;3.20;;;;;;;21.06;70.35;100069.97;1746098;80;20107;-57
2021/08/18 04:25:51;;;;;;;5.97;2.92;;;;;;;21.03;70.40;100077.29;1743483;80;21001;-59
2021/08/18 04:28:17;;;;;;;2.80;2.55;;;;;;;21.06;70.36;100078.09;1752623;80;21531;-59
2021/08/18 04:30:44;;;;;;;2.40;2.20;;;;;;;21.11;69.80;100069.45;1749352;82;21005;-59
2021/08/18 04:33:09;;;;;;;;;;;;;;;21.12;69.85;100058.09;1755222;81;21024;-58
2021/08/18 04:35:36;;;;;;;7.73;3.30;;;;;;;21.07;69.73;100063.48;1747398;81;20198;-59
2021/08/18 04:38:04;;;;;;;6.03;3.35;;;;;;;20.98;69.86;100060.45;1746364;80;21732;-59
2021/08/18 04:40:31;;;;;;;4.10;2.65;;;;;;;20.95;69.86;100055.03;1748782;82;21088;-58
2021/08/18 04:42:58;;;;;;;3.47;3.27;;;;;;;20.94;69.95;100046.62;1752564;80;20961;-59
2021/08/18 04:45:25;;;;;;;4.30;3.95;;;;;;;20.91;70.14;100031.45;1750485;81;21044;-59
2021/08/18 04:47:51;;;;;;;4.20;3.90;;;;;;;20.87;70.21;100022.20;1749555;80;21606;-58
2021/08/18 04:50:20;;;;;;;5.03;4.60;;;;;;;20.82;70.37;100013.53;1752515;80;21566;-59
2021/08/18 04:52:47;;;;;;;4.30;4.00;;;;;;;20.66;71.08;100016.69;1746143;82;21055;-58
2021/08/18 04:55:16;;;;;;;4.90;4.55;;;;;;;20.56;71.45;100027.45;1749033;80;21519;-59
2021/08/18 04:57:42;;;;;;;4.37;4.10;;;;;;;20.58;71.62;100022.03;1751806;80;21477;-58
2021/08/18 05:00:10;;;;;;;5.03;4.60;;;;;;;20.64;71.67;100022.10;1747142;80;20972;-59
2021/08/18 05:02:37;;;;;;;4.90;4.53;;;;;;;20.69;71.37;100010.75;1752126;80;21458;-59
2021/08/18 05:05:05;;;;;;;4.92;4.60;;;;;;;20.70;71.51;100015.11;1754245;80;21497;-60
2021/08/18 05:07:33;;;;;;;5.62;5.20;;;;;;;20.72;71.83;100031.91;1749315;80;21033;-60
2021/08/18 05:09:59;;;;;;;;;;;;;;;20.70;72.18;100031.88;1755833;80;20949;-58
2021/08/18 05:12:25;;;;;;;6.17;5.67;;;;;;;20.60;72.89;100038.86;1752630;80;20130;-58
2021/08/18 05:14:52;;;;;;;5.20;4.58;;;;;;;20.46;73.52;100040.39;1749387;80;21572;-58
2021/08/18 05:17:19;;;;;;;5.83;5.28;;;;;;;20.38;73.72;100042.21;1749825;80;21054;-59
2021/08/18 05:19:47;;;;;;;6.33;5.92;;;;;;;20.29;74.90;100044.61;1733569;80;21498;-60
2021/08/18 05:22:13;;;;;;;;;;;;;;;20.21;74.88;100041.01;1756280;80;20958;-58
2021/08/18 05:24:39;;;;;;;7.20;6.53;;;;;;;20.16;75.43;100051.81;1752560;80;20127;-60
2021/08/18 05:27:05;;;;;;;7.22;5.37;;;;;;;20.07;75.83;100058.23;1753031;80;21166;-59
2021/08/18 05:29:31;;;;;;;;;;;;;;;20.06;76.61;100057.13;1753977;80;21118;-58
2021/08/18 05:31:57;;;;;;;6.00;5.70;;;;;;;20.09;76.58;100062.03;1751755;80;20150;-55
2021/08/18 05:34:24;;;;;;;7.25;6.65;;;;;;;20.06;77.03;100062.54;1752198;80;21126;-58
2021/08/18 05:36:50;;;;;;;;;;;;;;;19.99;77.39;100063.58;1756788;80;21469;-58
2021/08/18 05:39:16;;;;;;;6.65;6.15;;;;;;;19.97;78.00;100066.27;1752743;82;20106;-58
2021/08/18 05:41:42;;;;;;;;;;;;;;;19.90;78.48;100073.78;1752448;82;21504;-59
2021/08/18 05:44:08;;;;;;;8.27;7.60;;;;;;;19.88;78.25;100069.16;1753791;80;20108;-59
2021/08/18 05:46:34;;;;;;;9.90;8.23;;;;;;;19.79;78.81;100063.39;1748935;80;21467;-60
2021/08/18 05:49:01;;;;;;;7.12;6.62;;;;;;;19.80;79.64;100074.50;1754398;82;21103;-60
2021/08/18 05:51:27;;;;;;;;;;;;;;;19.80;79.74;100071.25;1753175;80;21511;-61
2021/08/18 05:53:54;;;;;;;8.20;7.55;;;;;;;19.79;79.29;100073.66;1754459;82;20169;-61
2021/08/18 05:56:20;;;;;;;8.33;7.60;;;;;;;19.71;79.43;100074.10;1748504;80;20998;-61
2021/08/18 05:58:46;;;;;;;6.62;6.22;;;;;;;19.65;79.60;100077.30;1747969;80;21140;-61
2021/08/18 06:01:13;;;;;;;6.65;6.25;;;;;;;19.59;79.76;100080.19;1748281;81;21109;-62
2021/08/18 06:03:39;;;;;;;6.37;5.90;;;;;;;19.59;80.08;100072.07;1747785;81;20975;-62
2021/08/18 06:06:05;;;;;;;;;;;;;;;19.63;80.22;100082.14;1750506;81;21514;-60
2021/08/18 06:08:32;;;;;;;7.37;6.70;;;;;;;19.67;79.81;100076.23;1747725;81;20152;-61
2021/08/18 06:11:00;;;;;;;7.80;7.30;;;;;;;19.69;80.17;100075.44;1747472;82;21440;-60
2021/08/18 06:13:28;;;;;;;;;;;;;;;19.72;79.00;100078.97;1745467;81;21053;-60
2021/08/18 06:15:54;;;;;;;7.92;7.17;;;;;;;19.69;79.22;100072.19;1747680;82;20503;-59
2021/08/18 06:18:20;;;;;;;7.92;7.22;;;;;;;19.65;79.21;100077.84;1740993;81;21061;-61
2021/08/18 06:20:48;;;;;;;6.75;6.17;;;;;;;19.61;78.77;100072.66;1748041;81;21120;-60
2021/08/18 06:23:17;;;;;;;;;;;;;;;19.60;79.17;100073.17;1750273;81;21107;-61
2021/08/18 06:25:41;;;;;;;7.87;7.28;;;;;;;19.62;78.95;100073.73;1750393;81;20132;-61
2021/08/18 06:28:08;;;;;;;7.12;6.62;;;;;;;19.61;78.74;100078.07;1746227;81;21044;-61
2021/08/18 06:30:35;;;;;;;7.10;6.53;;;;;;;19.64;78.33;100085.11;1741050;82;21535;-61
2021/08/18 06:56:41;;;;;;;6.65;6.12;;;;;;;20.22;75.11;100095.42;1768339;76;22892;-59
2021/08/18 06:59:07;;;;;;;6.05;5.55;;;;;;;20.24;74.47;100091.92;1751515;80;21036;-60
2021/08/18 07:01:33;;;;;;;6.70;6.20;;;;;;;20.10;75.06;100101.53;1753063;80;21015;-61
2021/08/18 07:04:02;;;;;;;6.67;6.08;;;;;;;20.07;75.07;100116.94;1758580;80;21017;-59
2021/08/18 07:06:28;;;;;;;8.40;7.60;;;;;;;19.97;75.18;100121.73;1762476;80;21046;-61
2021/08/18 07:08:54;;;;;;;8.25;7.53;;;;;;;19.90;75.55;100119.21;1747147;80;21065;-59
2021/08/18 07:11:22;;;;;;;8.25;7.58;;;;;;;19.86;75.87;100122.16;1765079;79;21017;-60
2021/08/18 07:13:50;;;;;;;8.35;7.75;;;;;;;19.85;76.46;100123.21;1755333;80;21329;-62
2021/08/18 07:16:16;;;;;;;8.55;7.85;;;;;;;19.77;77.71;100114.22;1762273;80;21199;-59
2021/08/18 07:18:43;;;;;;;8.45;7.65;;;;;;;19.71;77.78;100111.96;1747403;80;21570;-60
2021/08/18 07:21:09;;;;;;;;;;;;;;;19.66;78.44;100109.20;1747207;80;21083;-60
2021/08/18 07:23:35;;;;;;;8.80;8.08;;;;;;;19.58;78.93;100092.89;1768122;78;20168;-62
2021/08/18 07:26:02;;;;;;;10.20;9.08;;;;;;;19.41;79.52;100081.36;1780539;78;21474;-61
2021/08/18 07:28:28;;;;;;;;;;;;;;;19.26;79.75;100093.61;1791749;78;21480;-60
2021/08/18 07:30:54;;;;;;;8.30;7.60;;;;;;;19.17;81.44;100070.80;1769892;78;20136;-61
2021/08/18 07:33:20;;;;;;;9.35;8.60;;;;;;;19.03;82.03;100047.41;1777469;78;20995;-61
2021/08/18 07:35:46;;;;;;;9.83;9.03;;;;;;;18.93;82.69;100043.25;1781770;78;21036;-58
2021/08/18 07:38:14;;;;;;;7.85;7.22;;;;;;;18.78;83.02;100053.28;1778328;78;21115;-60
2021/08/18 07:40:41;;;;;;;7.72;7.12;;;;;;;18.68;83.60;100058.02;1787391;78;20996;-57
2021/08/18 07:43:07;;;;;;;8.15;7.58;;;;;;;18.67;84.58;100055.55;1773099;78;20994;-59
2021/08/18 07:45:36;;;;;;;7.37;6.78;;;;;;;18.66;85.07;100045.81;1782854;78;21476;-60
2021/08/18 07:48:03;;;;;;;8.28;7.78;;;;;;;18.64;85.82;100051.99;1787963;78;21048;-60
2021/08/18 07:50:29;;;;;;;8.25;7.65;;;;;;;18.65;86.08;100049.59;1780139;78;21033;-61
2021/08/18 07:52:55;;;;;;;;;;;;;;;18.62;85.88;100047.37;1763331;80;21041;-59
2021/08/18 07:55:21;;;;;;;9.88;9.18;;;;;;;18.60;86.07;100050.32;1788323;79;20137;-59
2021/08/18 07:57:47;;;;;;;11.78;10.88;;;;;;;18.55;86.44;100044.03;1792123;78;20954;-58
2021/08/18 08:00:14;;;;;;;12.15;10.95;;;;;;;18.54;87.09;100045.11;1735113;81;21409;-59
2021/08/18 08:02:44;;;;;;;10.43;9.70;;;;;;;18.58;87.53;100055.16;1702039;84;21058;-60
2021/08/18 08:05:15;;;;;;;10.68;9.78;;;;;;;18.65;87.86;100050.94;1704058;83;20991;-60
2021/08/18 08:07:42;;;;;;;10.70;9.80;;;;;;;18.70;87.76;100052.34;1697706;83;21625;-59
2021/08/18 08:10:11;;;;;;;10.82;10.08;;;;;;;18.76;87.31;100053.23;1688522;85;20986;-59
2021/08/18 08:12:37;;;;;;;10.45;9.63;;;;;;;18.79;86.79;100064.89;1700506;83;20973;-59
2021/08/18 08:15:06;;;;;;;10.45;9.63;;;;;;;18.79;86.79;100055.44;1703875;84;21551;-58
2021/08/18 08:17:32;;;;;;;10.08;9.25;;;;;;;18.79;86.76;100057.59;1688610;83;21002;-59
2021/08/18 08:19:59;;;;;;;10.93;10.13;;;;;;;18.81;87.01;100061.44;1693031;83;21587;-60
2021/08/18 08:22:24;;;;;;;;;;;;;;;18.81;87.14;100064.13;1692310;83;21025;-59
2021/08/18 08:24:51;;;;;;;9.75;9.03;;;;;;;18.80;86.83;100068.73;1688671;83;20213;-59
2021/08/18 08:27:18;;;;;;;11.20;10.20;;;;;;;18.76;87.39;100066.73;1687911;83;21050;-59
2021/08/18 08:29:44;;;;;;;9.70;8.93;;;;;;;18.78;87.27;100069.48;1691862;83;20957;-60
2021/08/18 08:32:10;;;;;;;;;;;;;;;18.84;87.35;100075.26;1694229;83;21009;-60
2021/08/18 08:34:36;;;;;;;9.73;9.03;;;;;;;18.88;87.13;100078.28;1700517;82;20131;-62
2021/08/18 08:37:03;;;;;;;9.83;9.13;;;;;;;18.84;86.86;100080.66;1698727;83;21487;-59
2021/08/18 08:39:30;;;;;;;9.85;9.15;;;;;;;18.85;86.33;100084.16;1695272;83;21029;-60
2021/08/18 08:41:57;;;;;;;11.12;10.18;;;;;;;18.89;86.52;100092.59;1753039;82;21184;-61
2021/08/18 08:44:25;;;;;;;10.18;9.35;;;;;;;18.91;86.35;100087.75;1739440;80;21160;-61
2021/08/18 08:46:53;;;;;;;10.25;9.23;;;;;;;18.95;86.57;100079.43;1742478;80;21139;-61
2021/08/18 08:49:22;;;;;;;11.40;10.10;;;;;;;19.00;86.65;100080.86;1743439;82;21023;-59
2021/08/18 08:51:54;;;;;;;10.45;9.45;;;;;;;19.03;86.58;100085.77;1747082;80;21238;-60
2021/08/18 08:54:21;;;;;;;9.30;8.60;;;;;;;19.04;86.39;100088.73;1753174;80;22289;-60
2021/08/18 08:56:47;;;;;;;11.15;10.25;;;;;;;19.06;86.11;100091.48;1732662;80;20995;-60
2021/08/18 08:59:14;;;;;;;9.03;8.38;;;;;;;19.08;86.25;100095.80;1740269;80;21138;-60
2021/08/18 09:02:06;;;;;;;10.13;9.25;;;;;;;19.06;86.46;100094.19;1733780;80;21073;-60
2021/08/18 09:04:37;;;;;;;8.93;8.10;;;;;;;19.13;86.20;100106.14;1735003;82;20978;-60
2021/08/18 09:07:15;;;;;;;9.05;8.33;;;;;;;19.19;86.51;100101.11;1726561;80;20954;-60
2021/08/18 09:10:03;;;;;;;8.48;7.90;;;;;;;19.24;86.01;100103.86;1727009;82;21476;-60
2021/08/18 09:12:37;;;;;;;10.53;9.38;;;;;;;19.26;85.83;100099.02;1707623;82;21590;-62
2021/08/18 09:15:22;;;;;;;9.50;8.90;;;;;;;19.29;85.91;100103.12;1684196;85;21080;-60
2021/08/18 09:17:50;;;;;;;9.65;9.05;;;;;;;19.31;85.60;100101.48;1689392;83;21030;-60
2021/08/18 09:20:23;;;;;;;9.63;8.83;;;;;;;19.32;85.45;100099.08;1676425;85;21002;-59
2021/08/18 09:22:54;;;;;;;10.50;9.53;;;;;;;19.36;85.62;100099.66;1678137;84;20982;-60
2021/08/18 09:25:28;;;;;;;10.18;9.38;;;;;;;19.32;85.05;100093.68;1687900;84;21019;-61
2021/08/18 09:28:04;;;;;;;9.00;8.35;;;;;;;19.29;85.41;100099.06;1672122;84;21019;-59
2021/08/18 09:30:35;;;;;;;8.73;8.05;;;;;;;19.27;85.22;100094.45;1698433;84;21071;-60
2021/08/18 09:33:10;;;;;;;9.43;8.93;;;;;;;19.26;84.87;100099.55;1688396;84;21015;-58
2021/08/18 09:35:37;;;;;;;8.60;8.10;;;;;;;19.23;84.87;100096.83;1709578;83;20999;-61
2021/08/18 09:38:12;;;;;;;10.43;9.40;;;;;;;19.26;84.66;100106.31;1691073;84;21019;-60
2021/08/18 09:40:45;;;;;;;11.00;10.10;;;;;;;19.24;84.82;100111.16;1698099;84;21074;-59
2021/08/18 09:43:17;;;;;;;9.83;9.03;;;;;;;19.27;85.08;100110.66;1694383;84;21409;-60
2021/08/18 09:45:55;;;;;;;10.28;9.18;;;;;;;19.28;85.13;100112.82;1682206;84;20967;-60
2021/08/18 09:48:29;;;;;;;8.40;7.90;;;;;;;19.25;85.22;100108.20;1674241;85;21052;-60
2021/08/18 09:51:05;;;;;;;9.25;8.35;;;;;;;19.26;85.57;100121.98;1658164;85;21002;-60
2021/08/18 09:53:40;;;;;;;9.40;8.73;;;;;;;19.25;85.54;100120.36;1674709;85;21047;-60
2021/08/18 09:56:10;;;;;;;8.95;8.25;;;;;;;19.24;85.67;100111.96;1656287;83;21006;-59
2021/08/18 09:58:48;;;;;;;9.03;8.33;;;;;;;19.29;85.64;100122.03;1666229;84;21004;-60
2021/08/18 10:01:16;;;;;;;9.55;8.85;;;;;;;19.34;85.49;100117.21;1704447;80;20950;-60
2021/08/18 10:03:50;;;;;;;9.30;8.70;;;;;;;19.36;85.75;100125.34;1714315;82;21025;-61
2021/08/18 10:06:17;;;;;;;8.60;7.78;;;;;;;19.43;85.74;100122.45;1668862;83;20999;-61
2021/08/18 10:08:49;;;;;;;8.38;7.83;;;;;;;19.50;85.55;100120.39;1700771;83;21571;-60
2021/08/18 10:11:17;;;;;;;8.73;8.03;;;;;;;19.58;85.07;100122.63;1706149;82;20981;-61
2021/08/18 10:13:44;;;;;;;8.93;8.27;;;;;;;19.65;84.52;100126.50;1736285;81;20988;-60
2021/08/18 10:16:13;;;;;;;8.30;7.80;;;;;;;19.69;84.52;100121.41;1716945;82;21570;-60
2021/08/18 10:18:47;;;;;;;8.78;8.18;;;;;;;19.74;84.94;100117.41;1732206;82;21084;-59
2021/08/18 10:21:24;;;;;;;7.17;6.67;;;;;;;19.80;84.66;100111.02;1706850;82;21069;-60
2021/08/18 10:24:03;;;;;;;8.23;7.47;;;;;;;19.86;84.50;100109.17;1727420;81;20964;-61
2021/08/18 10:26:39;;;;;;;7.05;6.60;;;;;;;19.93;83.93;100105.70;1716530;82;21571;-60
2021/08/18 10:29:19;;;;;;;8.05;6.95;;;;;;;19.92;83.92;100098.67;1735642;81;21531;-60
2021/08/18 10:31:55;;;;;;;6.47;6.08;;;;;;;19.92;83.17;100103.55;1731174;81;21343;-60
2021/08/18 10:34:45;;;;;;;6.58;6.08;;;;;;;19.92;82.94;100106.25;1717620;81;20980;-59
2021/08/18 10:37:17;;;;;;;7.10;6.40;;;;;;;19.88;81.13;100111.09;1728542;82;21033;-60
2021/08/18 10:39:53;;;;;;;6.33;5.92;;;;;;;19.81;81.73;100112.63;1715466;82;21017;-60
2021/08/18 10:42:40;;;;;;;6.37;5.78;;;;;;;19.77;82.91;100108.26;1716752;82;20978;-61
2021/08/18 10:45:36;;;;;;;6.30;5.80;;;;;;;19.74;82.73;100098.48;1718974;81;21510;-60
2021/08/18 10:48:03;;;;;;;7.10;6.60;;;;;;;19.72;83.34;100093.36;1723699;82;21460;-60
2021/08/18 10:50:41;;;;;;;7.60;6.22;;;;;;;19.75;83.18;100098.78;1735889;82;21064;-60
2021/08/18 10:53:25;;;;;;;6.60;6.00;;;;;;;19.79;83.00;100093.14;1733989;81;21008;-60
2021/08/18 10:55:51;;;;;;;6.10;5.58;;;;;;;19.80;82.61;100094.78;1696833;82;21097;-63
2021/08/18 10:58:28;;;;;;;;;;;;;;;19.77;83.03;100089.88;1739773;81;21019;-61
2021/08/18 11:00:54;;;;;;;7.12;6.55;;;;;;;19.80;82.74;100086.67;1745590;81;20443;-59
2021/08/18 11:03:26;;;;;;;7.20;6.67;;;;;;;19.79;82.39;100068.80;1735624;81;20961;-60
2021/08/18 11:05:54;;;;;;;6.80;6.25;;;;;;;19.58;82.23;100038.02;1737688;81;21056;-60
2021/08/18 11:08:40;;;;;;;8.65;6.33;;;;;;;19.81;82.01;100072.06;1747277;81;21580;-61
2021/08/18 11:11:11;;;;;;;9.60;6.03;;;;;;;19.81;82.44;100077.47;1746687;81;21632;-62
2021/08/18 11:14:08;;;;;;;8.75;7.22;;;;;;;19.79;81.96;100075.56;1743430;81;21039;-59
2021/08/18 11:16:34;;;;;;;7.45;6.60;;;;;;;19.74;82.24;100079.05;1742376;81;21031;-59
2021/08/18 11:19:09;;;;;;;6.97;6.47;;;;;;;19.68;81.25;100075.15;1731125;81;21179;-61
2021/08/18 11:21:41;;;;;;;7.47;6.87;;;;;;;19.60;81.99;100066.42;1736416;81;21072;-62
2021/08/18 11:24:13;;;;;;;8.58;7.80;;;;;;;19.61;82.54;100063.20;1731229;81;21545;-60
2021/08/18 11:26:45;;;;;;;7.25;6.67;;;;;;;19.62;82.39;100061.57;1733853;81;21524;-60
2021/08/18 11:29:19;;;;;;;6.92;6.50;;;;;;;19.66;81.75;100052.41;1729396;81;21007;-63
2021/08/18 11:31:49;;;;;;;7.53;6.92;;;;;;;19.65;81.15;100051.61;1733133;81;21525;-60
2021/08/18 11:34:27;;;;;;;6.58;6.08;;;;;;;19.60;80.80;100055.60;1732180;81;21052;-60
2021/08/18 11:37:05;;;;;;;6.87;6.47;;;;;;;19.58;80.90;100048.28;1736313;81;21051;-59
2021/08/18 11:39:39;;;;;;;6.85;6.35;;;;;;;19.59;80.41;100047.74;1730327;81;21043;-60
2021/08/18 11:42:16;;;;;;;7.55;6.95;;;;;;;19.56;80.62;100051.78;1723238;81;21012;-59
2021/08/18 11:44:44;;;;;;;6.35;5.95;;;;;;;19.58;80.68;100048.28;1722762;81;21063;-59
2021/08/18 11:47:15;;;;;;;5.40;5.00;;;;;;;19.61;80.75;100036.97;1740173;81;21108;-60
2021/08/18 11:49:44;;;;;;;5.50;4.85;;;;;;;19.63;79.53;100032.12;1735050;81;21038;-59
2021/08/18 11:52:21;;;;;;;5.80;4.95;;;;;;;19.72;79.36;100041.11;1736714;81;21039;-59
2021/08/18 11:55:02;;;;;;;4.10;3.90;;;;;;;19.83;79.26;100041.00;1732078;81;21023;-59
2021/08/18 11:57:30;;;;;;;4.90;4.62;;;;;;;19.97;78.01;100035.97;1726170;81;21615;-61
2021/08/18 11:59:59;;;;;;;5.15;4.75;;;;;;;20.08;78.14;100036.05;1742362;80;21570;-59
2021/08/18 12:02:30;;;;;;;8.28;4.95;;;;;;;20.20;76.77;100036.69;1709999;81;21165;-60